New Paltz, New York
Current Conditions -  °F | °C
As of 6:53 AM on Saturday 22 Nov 2014 (Local Time) from KPOU Reporting Station
Clear Clear  
Wind Chill: 17°   Ceiling: Unl
Heat Index: 23°   Visibility: 10mi
Dew Point: 12°   Wind: 5mph
Humidity: 63%   Direction: 170°S
Pressure: 30.46"   Gusts: NA
Location:  41.75°N, 74.08°W
Report Text: KPOU 221153Z AUTO 17004KT 10SM CLR M05/M11 A3046 RMK AO2 SLP312 T10501111 11039 21050 55002 TSNO
Loading
Personal Weather Stations






























Interactive Weather Map New forecast layout! Learn more

10-Day Weather Forecast

Advertisements
Track Severe Weather on mobile